sensor_id;sensor_type;location;lat;lon;timestamp;temperature;humidity
29281;DHT22;25048;49.590;11.026;2023-04-06T00:01:08;-3.10;99.90
29281;DHT22;25048;49.590;11.026;2023-04-06T00:03:35;-3.10;99.90
29281;DHT22;25048;49.590;11.026;2023-04-06T00:06:03;-3.20;99.90
29281;DHT22;25048;49.590;11.026;2023-04-06T00:08:31;-3.20;99.90
29281;DHT22;25048;49.590;11.026;2023-04-06T00:10:58;-3.20;99.90
29281;DHT22;25048;49.590;11.026;2023-04-06T00:13:27;-3.20;99.90
29281;DHT22;25048;49.590;11.026;2023-04-06T00:15:54;-3.20;99.90
29281;DHT22;25048;49.590;11.026;2023-04-06T00:18:22;-3.20;99.90
29281;DHT22;25048;49.590;11.026;2023-04-06T00:20:50;-3.30;99.90
29281;DHT22;25048;49.590;11.026;2023-04-06T00:23:17;-3.30;99.90
29281;DHT22;25048;49.590;11.026;2023-04-06T00:25:45;-3.40;99.90
29281;DHT22;25048;49.590;11.026;2023-04-06T00:28:13;-3.40;99.90
29281;DHT22;25048;49.590;11.026;2023-04-06T00:30:41;-3.50;99.90
29281;DHT22;25048;49.590;11.026;2023-04-06T00:33:08;-3.50;99.90
29281;DHT22;25048;49.590;11.026;2023-04-06T00:35:36;-3.50;99.90
29281;DHT22;25048;49.590;11.026;2023-04-06T00:38:05;-3.60;99.90
29281;DHT22;25048;49.590;11.026;2023-04-06T00:40:32;-3.60;99.90
29281;DHT22;25048;49.590;11.026;2023-04-06T00:43:01;-3.60;99.90
29281;DHT22;25048;49.590;11.026;2023-04-06T00:45:28;-3.70;99.90
29281;DHT22;25048;49.590;11.026;2023-04-06T00:47:56;-3.70;99.90
29281;DHT22;25048;49.590;11.026;2023-04-06T00:50:24;-3.80;99.90
29281;DHT22;25048;49.590;11.026;2023-04-06T00:52:51;-3.80;99.90
29281;DHT22;25048;49.590;11.026;2023-04-06T00:55:19;-3.80;99.90
29281;DHT22;25048;49.590;11.026;2023-04-06T00:57:46;-3.90;99.90
29281;DHT22;25048;49.590;11.026;2023-04-06T01:00:15;-3.90;99.90
29281;DHT22;25048;49.590;11.026;2023-04-06T01:02:43;-3.90;99.90
29281;DHT22;25048;49.590;11.026;2023-04-06T01:05:12;-3.90;99.90
29281;DHT22;25048;49.590;11.026;2023-04-06T01:07:40;-3.90;99.90
29281;DHT22;25048;49.590;11.026;2023-04-06T01:10:08;-3.90;99.90
29281;DHT22;25048;49.590;11.026;2023-04-06T01:12:35;-4.00;99.90
29281;DHT22;25048;49.590;11.026;2023-04-06T01:15:05;-4.00;99.90
29281;DHT22;25048;49.590;11.026;2023-04-06T01:17:33;-4.00;99.90
29281;DHT22;25048;49.590;11.026;2023-04-06T01:20:01;-4.00;99.90
29281;DHT22;25048;49.590;11.026;2023-04-06T01:22:29;-4.10;99.90
29281;DHT22;25048;49.590;11.026;2023-04-06T01:24:56;-4.10;99.90
29281;DHT22;25048;49.590;11.026;2023-04-06T01:27:24;-4.10;99.90
29281;DHT22;25048;49.590;11.026;2023-04-06T01:29:52;-4.10;99.90
29281;DHT22;25048;49.590;11.026;2023-04-06T01:32:20;-4.10;99.90
29281;DHT22;25048;49.590;11.026;2023-04-06T01:34:47;-4.10;99.90
29281;DHT22;25048;49.590;11.026;2023-04-06T01:37:15;-4.20;99.90
29281;DHT22;25048;49.590;11.026;2023-04-06T01:39:43;-4.20;99.90
29281;DHT22;25048;49.590;11.026;2023-04-06T01:42:11;-4.20;99.90
29281;DHT22;25048;49.590;11.026;2023-04-06T01:44:39;-4.30;99.90
29281;DHT22;25048;49.590;11.026;2023-04-06T01:47:06;-4.30;99.90
29281;DHT22;25048;49.590;11.026;2023-04-06T01:49:34;-4.40;99.90
29281;DHT22;25048;49.590;11.026;2023-04-06T01:52:02;-4.30;99.90
29281;DHT22;25048;49.590;11.026;2023-04-06T01:54:29;-4.40;99.90
29281;DHT22;25048;49.590;11.026;2023-04-06T01:56:57;-4.40;99.90
29281;DHT22;25048;49.590;11.026;2023-04-06T01:59:24;-4.50;99.90
29281;DHT22;25048;49.590;11.026;2023-04-06T02:01:52;-4.50;99.90
29281;DHT22;25048;49.590;11.026;2023-04-06T02:04:19;-4.50;99.90
29281;DHT22;25048;49.590;11.026;2023-04-06T02:06:47;-4.50;99.90
29281;DHT22;25048;49.590;11.026;2023-04-06T02:09:15;-4.60;99.90
29281;DHT22;25048;49.590;11.026;2023-04-06T02:11:42;-4.60;99.90
29281;DHT22;25048;49.590;11.026;2023-04-06T02:14:10;-4.60;99.90
29281;DHT22;25048;49.590;11.026;2023-04-06T02:16:37;-4.60;99.90
29281;DHT22;25048;49.590;11.026;2023-04-06T02:19:05;-4.60;99.90
29281;DHT22;25048;49.590;11.026;2023-04-06T02:21:32;-4.60;99.90
29281;DHT22;25048;49.590;11.026;2023-04-06T02:24:00;-4.60;99.90
29281;DHT22;25048;49.590;11.026;2023-04-06T02:26:27;-4.60;99.90
29281;DHT22;25048;49.590;11.026;2023-04-06T02:28:55;-4.60;99.90
29281;DHT22;25048;49.590;11.026;2023-04-06T02:31:22;-4.60;99.90
29281;DHT22;25048;49.590;11.026;2023-04-06T02:33:50;-4.60;99.90
29281;DHT22;25048;49.590;11.026;2023-04-06T02:36:17;-4.60;99.90
29281;DHT22;25048;49.590;11.026;2023-04-06T02:38:45;-4.60;99.90
29281;DHT22;25048;49.590;11.026;2023-04-06T02:41:12;-4.70;99.90
29281;DHT22;25048;49.590;11.026;2023-04-06T02:43:40;-4.60;99.90
29281;DHT22;25048;49.590;11.026;2023-04-06T02:46:07;-4.60;99.90
29281;DHT22;25048;49.590;11.026;2023-04-06T02:48:35;-4.70;99.90
29281;DHT22;25048;49.590;11.026;2023-04-06T02:51:03;-4.70;99.90
29281;DHT22;25048;49.590;11.026;2023-04-06T02:53:31;-4.70;99.90
29281;DHT22;25048;49.590;11.026;2023-04-06T02:55:59;-4.70;99.90
29281;DHT22;25048;49.590;11.026;2023-04-06T02:58:26;-4.70;99.90
29281;DHT22;25048;49.590;11.026;2023-04-06T03:00:54;-4.70;99.90
29281;DHT22;25048;49.590;11.026;2023-04-06T03:03:21;-4.70;99.90
29281;DHT22;25048;49.590;11.026;2023-04-06T03:05:49;-4.70;99.90
29281;DHT22;25048;49.590;11.026;2023-04-06T03:08:16;-4.80;99.90
29281;DHT22;25048;49.590;11.026;2023-04-06T03:10:44;-4.80;99.90
29281;DHT22;25048;49.590;11.026;2023-04-06T03:13:11;-4.80;99.90
29281;DHT22;25048;49.590;11.026;2023-04-06T03:15:39;-4.80;99.90
29281;DHT22;25048;49.590;11.026;2023-04-06T03:18:07;-4.80;99.90
29281;DHT22;25048;49.590;11.026;2023-04-06T03:20:34;-4.80;99.90
29281;DHT22;25048;49.590;11.026;2023-04-06T03:23:02;-4.80;99.90
29281;DHT22;25048;49.590;11.026;2023-04-06T03:25:29;-4.90;99.90
29281;DHT22;25048;49.590;11.026;2023-04-06T03:27:57;-4.90;99.90
29281;DHT22;25048;49.590;11.026;2023-04-06T03:30:24;-5.00;99.90
29281;DHT22;25048;49.590;11.026;2023-04-06T03:32:53;-5.00;99.90
29281;DHT22;25048;49.590;11.026;2023-04-06T03:35:20;-5.10;99.90
29281;DHT22;25048;49.590;11.026;2023-04-06T03:37:48;-5.00;99.90
29281;DHT22;25048;49.590;11.026;2023-04-06T03:40:16;-5.00;99.90
29281;DHT22;25048;49.590;11.026;2023-04-06T03:42:43;-5.00;99.90
29281;DHT22;25048;49.590;11.026;2023-04-06T03:45:11;-5.10;99.90
29281;DHT22;25048;49.590;11.026;2023-04-06T03:47:40;-5.10;99.90
29281;DHT22;25048;49.590;11.026;2023-04-06T03:50:08;-5.20;99.90
29281;DHT22;25048;49.590;11.026;2023-04-06T03:52:36;-5.20;99.90
29281;DHT22;25048;49.590;11.026;2023-04-06T03:55:03;-5.20;99.90
29281;DHT22;25048;49.590;11.026;2023-04-06T03:57:31;-5.20;99.90
29281;DHT22;25048;49.590;11.026;2023-04-06T03:59:59;-5.30;99.90
29281;DHT22;25048;49.590;11.026;2023-04-06T04:02:26;-5.30;99.90
29281;DHT22;25048;49.590;11.026;2023-04-06T04:04:54;-5.30;99.90
29281;DHT22;25048;49.590;11.026;2023-04-06T04:07:21;-5.30;99.90
29281;DHT22;25048;49.590;11.026;2023-04-06T04:09:49;-5.30;99.90
29281;DHT22;25048;49.590;11.026;2023-04-06T04:12:16;-5.40;99.90
29281;DHT22;25048;49.590;11.026;2023-04-06T04:14:44;-5.40;99.90
29281;DHT22;25048;49.590;11.026;2023-04-06T04:17:11;-5.40;99.90
29281;DHT22;25048;49.590;11.026;2023-04-06T04:19:39;-5.40;99.90
29281;DHT22;25048;49.590;11.026;2023-04-06T04:22:06;-5.40;99.90
29281;DHT22;25048;49.590;11.026;2023-04-06T04:24:34;-5.40;99.90
29281;DHT22;25048;49.590;11.026;2023-04-06T04:27:01;-5.40;99.90
29281;DHT22;25048;49.590;11.026;2023-04-06T04:29:29;-5.40;99.90
29281;DHT22;25048;49.590;11.026;2023-04-06T04:31:57;-5.40;99.90
29281;DHT22;25048;49.590;11.026;2023-04-06T04:34:24;-5.40;99.90
29281;DHT22;25048;49.590;11.026;2023-04-06T04:36:52;-5.40;99.90
29281;DHT22;25048;49.590;11.026;2023-04-06T04:39:20;-5.50;99.90
29281;DHT22;25048;49.590;11.026;2023-04-06T04:41:47;-5.50;99.90
29281;DHT22;25048;49.590;11.026;2023-04-06T04:44:15;-5.50;99.90
29281;DHT22;25048;49.590;11.026;2023-04-06T04:46:43;-5.50;99.90
29281;DHT22;25048;49.590;11.026;2023-04-06T04:49:10;-5.50;99.90
29281;DHT22;25048;49.590;11.026;2023-04-06T04:51:38;-5.50;99.90
29281;DHT22;25048;49.590;11.026;2023-04-06T04:54:05;-5.40;99.90
29281;DHT22;25048;49.590;11.026;2023-04-06T04:56:33;-5.50;99.90
29281;DHT22;25048;49.590;11.026;2023-04-06T04:59:00;-5.40;99.90
29281;DHT22;25048;49.590;11.026;2023-04-06T05:01:28;-5.40;99.90
29281;DHT22;25048;49.590;11.026;2023-04-06T05:03:55;-5.40;99.90
29281;DHT22;25048;49.590;11.026;2023-04-06T05:06:23;-5.40;99.90
29281;DHT22;25048;49.590;11.026;2023-04-06T05:08:51;-5.30;99.90
29281;DHT22;25048;49.590;11.026;2023-04-06T05:11:19;-5.30;99.90
29281;DHT22;25048;49.590;11.026;2023-04-06T05:13:47;-5.30;99.90
29281;DHT22;25048;49.590;11.026;2023-04-06T05:16:15;-5.20;99.90
29281;DHT22;25048;49.590;11.026;2023-04-06T05:18:42;-5.20;99.90
29281;DHT22;25048;49.590;11.026;2023-04-06T05:21:11;-5.10;99.90
29281;DHT22;25048;49.590;11.026;2023-04-06T05:23:39;-5.00;99.90
29281;DHT22;25048;49.590;11.026;2023-04-06T05:26:06;-5.00;99.90
29281;DHT22;25048;49.590;11.026;2023-04-06T05:28:34;-4.90;99.90
29281;DHT22;25048;49.590;11.026;2023-04-06T05:31:02;-4.80;99.90
29281;DHT22;25048;49.590;11.026;2023-04-06T05:33:30;-4.60;99.90
29281;DHT22;25048;49.590;11.026;2023-04-06T05:35:57;-4.30;99.90
29281;DHT22;25048;49.590;11.026;2023-04-06T05:38:27;-3.80;99.90
29281;DHT22;25048;49.590;11.026;2023-04-06T05:40:54;-3.50;99.90
29281;DHT22;25048;49.590;11.026;2023-04-06T05:43:22;-3.10;99.90
29281;DHT22;25048;49.590;11.026;2023-04-06T05:45:49;-2.70;99.90
29281;DHT22;25048;49.590;11.026;2023-04-06T05:48:17;-2.40;99.90
29281;DHT22;25048;49.590;11.026;2023-04-06T05:50:49;-2.10;99.90
29281;DHT22;25048;49.590;11.026;2023-04-06T05:53:19;-1.80;99.90
29281;DHT22;25048;49.590;11.026;2023-04-06T05:55:48;-1.60;99.90
29281;DHT22;25048;49.590;11.026;2023-04-06T05:58:16;-1.40;99.90
29281;DHT22;25048;49.590;11.026;2023-04-06T06:00:43;-1.30;99.90
29281;DHT22;25048;49.590;11.026;2023-04-06T06:03:12;-1.10;99.90
29281;DHT22;25048;49.590;11.026;2023-04-06T06:05:41;-1.00;99.90
29281;DHT22;25048;49.590;11.026;2023-04-06T06:08:09;-0.90;99.90
29281;DHT22;25048;49.590;11.026;2023-04-06T06:10:38;-0.80;99.90
29281;DHT22;25048;49.590;11.026;2023-04-06T06:13:06;-0.80;99.90
29281;DHT22;25048;49.590;11.026;2023-04-06T06:15:34;-0.60;99.90
29281;DHT22;25048;49.590;11.026;2023-04-06T06:18:01;-0.50;99.90
29281;DHT22;25048;49.590;11.026;2023-04-06T06:20:29;-0.30;99.90
29281;DHT22;25048;49.590;11.026;2023-04-06T06:22:56;-0.10;99.90
29281;DHT22;25048;49.590;11.026;2023-04-06T06:25:24;0.20;99.90
29281;DHT22;25048;49.590;11.026;2023-04-06T06:27:51;0.40;99.90
29281;DHT22;25048;49.590;11.026;2023-04-06T06:30:19;0.70;99.90
29281;DHT22;25048;49.590;11.026;2023-04-06T06:32:47;0.90;99.90
29281;DHT22;25048;49.590;11.026;2023-04-06T06:35:14;1.10;99.90
29281;DHT22;25048;49.590;11.026;2023-04-06T06:37:42;1.20;99.90
29281;DHT22;25048;49.590;11.026;2023-04-06T06:40:11;1.30;99.90
29281;DHT22;25048;49.590;11.026;2023-04-06T06:42:40;1.50;99.90
29281;DHT22;25048;49.590;11.026;2023-04-06T06:45:08;1.60;99.90
29281;DHT22;25048;49.590;11.026;2023-04-06T06:47:36;1.70;99.90
29281;DHT22;25048;49.590;11.026;2023-04-06T06:50:05;1.80;99.90
29281;DHT22;25048;49.590;11.026;2023-04-06T06:52:32;2.00;99.90
29281;DHT22;25048;49.590;11.026;2023-04-06T06:55:00;2.10;99.90
29281;DHT22;25048;49.590;11.026;2023-04-06T06:57:28;2.30;99.90
29281;DHT22;25048;49.590;11.026;2023-04-06T06:59:55;2.40;99.90
29281;DHT22;25048;49.590;11.026;2023-04-06T07:02:23;2.60;99.90
29281;DHT22;25048;49.590;11.026;2023-04-06T07:04:51;2.80;99.90
29281;DHT22;25048;49.590;11.026;2023-04-06T07:07:18;3.00;99.90
29281;DHT22;25048;49.590;11.026;2023-04-06T07:09:46;3.20;99.90
29281;DHT22;25048;49.590;11.026;2023-04-06T07:12:13;3.30;99.90
29281;DHT22;25048;49.590;11.026;2023-04-06T07:14:42;3.50;99.90
29281;DHT22;25048;49.590;11.026;2023-04-06T07:17:10;3.60;99.90
29281;DHT22;25048;49.590;11.026;2023-04-06T07:19:37;3.80;99.90
29281;DHT22;25048;49.590;11.026;2023-04-06T07:22:05;4.10;99.90
29281;DHT22;25048;49.590;11.026;2023-04-06T07:24:32;4.20;99.90
29281;DHT22;25048;49.590;11.026;2023-04-06T07:27:00;4.40;99.90
29281;DHT22;25048;49.590;11.026;2023-04-06T07:29:28;4.70;99.90
29281;DHT22;25048;49.590;11.026;2023-04-06T07:31:55;4.80;99.90
29281;DHT22;25048;49.590;11.026;2023-04-06T07:34:23;5.00;99.90
29281;DHT22;25048;49.590;11.026;2023-04-06T07:36:51;5.20;99.90
29281;DHT22;25048;49.590;11.026;2023-04-06T07:39:20;5.40;99.90
29281;DHT22;25048;49.590;11.026;2023-04-06T07:41:48;5.60;99.90
29281;DHT22;25048;49.590;11.026;2023-04-06T07:44:15;5.70;99.90
29281;DHT22;25048;49.590;11.026;2023-04-06T07:46:42;5.90;99.90
29281;DHT22;25048;49.590;11.026;2023-04-06T07:49:10;6.20;99.90
29281;DHT22;25048;49.590;11.026;2023-04-06T07:51:39;6.40;99.90
29281;DHT22;25048;49.590;11.026;2023-04-06T07:54:07;6.60;99.90
29281;DHT22;25048;49.590;11.026;2023-04-06T07:56:34;6.90;99.90
29281;DHT22;25048;49.590;11.026;2023-04-06T07:59:02;7.10;99.90
29281;DHT22;25048;49.590;11.026;2023-04-06T08:01:29;7.20;99.90
29281;DHT22;25048;49.590;11.026;2023-04-06T08:03:57;7.40;99.90
29281;DHT22;25048;49.590;11.026;2023-04-06T08:06:26;7.60;99.90
29281;DHT22;25048;49.590;11.026;2023-04-06T08:08:55;7.80;99.20
29281;DHT22;25048;49.590;11.026;2023-04-06T08:11:23;7.90;98.70
29281;DHT22;25048;49.590;11.026;2023-04-06T08:13:51;8.10;97.30
29281;DHT22;25048;49.590;11.026;2023-04-06T08:16:19;8.30;97.00
29281;DHT22;25048;49.590;11.026;2023-04-06T08:18:46;8.40;97.30
29281;DHT22;25048;49.590;11.026;2023-04-06T08:21:14;8.60;96.90
29281;DHT22;25048;49.590;11.026;2023-04-06T08:23:41;8.80;96.00
29281;DHT22;25048;49.590;11.026;2023-04-06T08:26:09;8.90;95.20
29281;DHT22;25048;49.590;11.026;2023-04-06T08:28:37;9.00;93.70
29281;DHT22;25048;49.590;11.026;2023-04-06T08:31:05;9.10;94.70
29281;DHT22;25048;49.590;11.026;2023-04-06T08:33:33;9.20;93.40
29281;DHT22;25048;49.590;11.026;2023-04-06T08:36:10;9.30;93.20
29281;DHT22;25048;49.590;11.026;2023-04-06T08:38:39;9.40;91.20
29281;DHT22;25048;49.590;11.026;2023-04-06T08:41:11;9.50;91.80
29281;DHT22;25048;49.590;11.026;2023-04-06T08:43:56;9.50;91.20
29281;DHT22;25048;49.590;11.026;2023-04-06T08:46:22;9.50;91.70
29281;DHT22;25048;49.590;11.026;2023-04-06T08:48:52;9.60;91.20
29281;DHT22;25048;49.590;11.026;2023-04-06T08:51:19;9.80;90.40
29281;DHT22;25048;49.590;11.026;2023-04-06T08:53:47;9.90;90.50
29281;DHT22;25048;49.590;11.026;2023-04-06T08:56:16;10.10;91.10
29281;DHT22;25048;49.590;11.026;2023-04-06T08:58:44;10.40;88.90
29281;DHT22;25048;49.590;11.026;2023-04-06T09:01:13;10.40;85.70
29281;DHT22;25048;49.590;11.026;2023-04-06T09:03:42;10.40;86.10
29281;DHT22;25048;49.590;11.026;2023-04-06T09:06:10;10.40;84.90
29281;DHT22;25048;49.590;11.026;2023-04-06T09:08:40;10.70;87.60
29281;DHT22;25048;49.590;11.026;2023-04-06T09:11:08;10.80;83.20
29281;DHT22;25048;49.590;11.026;2023-04-06T09:13:50;10.80;81.00
29281;DHT22;25048;49.590;11.026;2023-04-06T09:16:18;10.70;81.10
29281;DHT22;25048;49.590;11.026;2023-04-06T09:18:46;10.80;80.90
29281;DHT22;25048;49.590;11.026;2023-04-06T09:21:16;10.80;80.10
29281;DHT22;25048;49.590;11.026;2023-04-06T09:23:45;10.90;80.10
29281;DHT22;25048;49.590;11.026;2023-04-06T09:26:16;11.00;77.90
29281;DHT22;25048;49.590;11.026;2023-04-06T09:28:53;11.20;80.90
29281;DHT22;25048;49.590;11.026;2023-04-06T09:31:26;11.40;76.20
29281;DHT22;25048;49.590;11.026;2023-04-06T09:33:54;11.60;75.10
29281;DHT22;25048;49.590;11.026;2023-04-06T09:36:33;11.70;74.30
29281;DHT22;25048;49.590;11.026;2023-04-06T09:39:02;11.70;73.50
29281;DHT22;25048;49.590;11.026;2023-04-06T09:41:37;11.80;72.70
29281;DHT22;25048;49.590;11.026;2023-04-06T09:44:07;12.00;73.40
29281;DHT22;25048;49.590;11.026;2023-04-06T09:46:37;12.10;72.80
29281;DHT22;25048;49.590;11.026;2023-04-06T09:49:09;12.30;73.20
29281;DHT22;25048;49.590;11.026;2023-04-06T09:51:44;12.60;74.40
29281;DHT22;25048;49.590;11.026;2023-04-06T09:54:12;12.80;70.50
29281;DHT22;25048;49.590;11.026;2023-04-06T09:56:54;12.90;71.50
29281;DHT22;25048;49.590;11.026;2023-04-06T09:59:44;13.00;69.90
29281;DHT22;25048;49.590;11.026;2023-04-06T10:02:16;13.20;67.40
29281;DHT22;25048;49.590;11.026;2023-04-06T10:04:47;13.10;65.20
29281;DHT22;25048;49.590;11.026;2023-04-06T10:07:13;13.20;68.10
29281;DHT22;25048;49.590;11.026;2023-04-06T10:09:44;13.30;63.50
29281;DHT22;25048;49.590;11.026;2023-04-06T10:12:13;13.30;65.90
29281;DHT22;25048;49.590;11.026;2023-04-06T10:14:41;13.10;63.20
29281;DHT22;25048;49.590;11.026;2023-04-06T10:17:09;13.00;62.10
29281;DHT22;25048;49.590;11.026;2023-04-06T10:19:53;13.10;67.50
29281;DHT22;25048;49.590;11.026;2023-04-06T10:22:40;13.20;66.20
29281;DHT22;25048;49.590;11.026;2023-04-06T10:25:03;13.00;64.90
29281;DHT22;25048;49.590;11.026;2023-04-06T10:27:33;13.30;70.10
29281;DHT22;25048;49.590;11.026;2023-04-06T10:30:05;13.30;63.30
29281;DHT22;25048;49.590;11.026;2023-04-06T10:32:34;13.60;66.60
29281;DHT22;25048;49.590;11.026;2023-04-06T10:35:10;13.80;64.90
29281;DHT22;25048;49.590;11.026;2023-04-06T10:38:01;13.90;63.40
29281;DHT22;25048;49.590;11.026;2023-04-06T10:40:29;13.90;61.60
29281;DHT22;25048;49.590;11.026;2023-04-06T10:43:12;13.90;61.60
29281;DHT22;25048;49.590;11.026;2023-04-06T10:45:41;14.10;63.80
29281;DHT22;25048;49.590;11.026;2023-04-06T10:48:19;14.20;60.00
29281;DHT22;25048;49.590;11.026;2023-04-06T10:50:51;14.30;60.20
29281;DHT22;25048;49.590;11.026;2023-04-06T10:53:23;14.50;59.30
29281;DHT22;25048;49.590;11.026;2023-04-06T10:55:53;14.40;58.60
29281;DHT22;25048;49.590;11.026;2023-04-06T10:58:26;14.30;62.30
29281;DHT22;25048;49.590;11.026;2023-04-06T11:00:55;14.50;60.90
29281;DHT22;25048;49.590;11.026;2023-04-06T11:03:22;14.70;57.20
29281;DHT22;25048;49.590;11.026;2023-04-06T11:05:50;14.70;57.70
29281;DHT22;25048;49.590;11.026;2023-04-06T11:08:32;14.90;59.30
29281;DHT22;25048;49.590;11.026;2023-04-06T11:11:11;14.90;57.40
29281;DHT22;25048;49.590;11.026;2023-04-06T11:13:44;14.80;57.10
29281;DHT22;25048;49.590;11.026;2023-04-06T11:16:26;14.90;56.70
29281;DHT22;25048;49.590;11.026;2023-04-06T11:19:01;15.00;57.10
29281;DHT22;25048;49.590;11.026;2023-04-06T11:21:38;15.20;58.30
29281;DHT22;25048;49.590;11.026;2023-04-06T11:24:17;15.50;54.80
29281;DHT22;25048;49.590;11.026;2023-04-06T11:26:53;15.40;56.10
29281;DHT22;25048;49.590;11.026;2023-04-06T11:29:28;15.40;55.10
29281;DHT22;25048;49.590;11.026;2023-04-06T11:32:06;15.40;57.50
29281;DHT22;25048;49.590;11.026;2023-04-06T11:34:37;15.60;56.20
29281;DHT22;25048;49.590;11.026;2023-04-06T11:37:07;15.80;53.90
29281;DHT22;25048;49.590;11.026;2023-04-06T11:39:52;15.50;51.50
29281;DHT22;25048;49.590;11.026;2023-04-06T11:42:25;15.40;53.10
29281;DHT22;25048;49.590;11.026;2023-04-06T11:44:57;15.60;53.80
29281;DHT22;25048;49.590;11.026;2023-04-06T11:47:36;15.80;52.00
29281;DHT22;25048;49.590;11.026;2023-04-06T11:50:10;15.80;52.30
29281;DHT22;25048;49.590;11.026;2023-04-06T11:52:39;16.00;55.70
29281;DHT22;25048;49.590;11.026;2023-04-06T11:55:18;15.90;49.60
29281;DHT22;25048;49.590;11.026;2023-04-06T11:57:46;15.70;51.10
29281;DHT22;25048;49.590;11.026;2023-04-06T12:00:16;15.20;52.50
29281;DHT22;25048;49.590;11.026;2023-04-06T12:02:48;14.80;53.10
29281;DHT22;25048;49.590;11.026;2023-04-06T12:05:16;14.70;52.90
29281;DHT22;25048;49.590;11.026;2023-04-06T12:07:43;14.80;52.50
29281;DHT22;25048;49.590;11.026;2023-04-06T12:10:11;14.90;53.60
29281;DHT22;25048;49.590;11.026;2023-04-06T12:12:39;15.20;55.30
29281;DHT22;25048;49.590;11.026;2023-04-06T12:15:07;15.40;53.30
29281;DHT22;25048;49.590;11.026;2023-04-06T12:17:35;15.50;50.30
29281;DHT22;25048;49.590;11.026;2023-04-06T12:20:03;15.60;49.60
29281;DHT22;25048;49.590;11.026;2023-04-06T12:22:31;15.80;51.40
29281;DHT22;25048;49.590;11.026;2023-04-06T12:24:58;16.10;51.90
29281;DHT22;25048;49.590;11.026;2023-04-06T12:27:26;16.30;52.90
29281;DHT22;25048;49.590;11.026;2023-04-06T12:29:54;16.20;49.90
29281;DHT22;25048;49.590;11.026;2023-04-06T12:32:22;16.30;49.40
29281;DHT22;25048;49.590;11.026;2023-04-06T12:34:51;16.50;50.90
29281;DHT22;25048;49.590;11.026;2023-04-06T12:37:18;16.60;49.40
29281;DHT22;25048;49.590;11.026;2023-04-06T12:39:47;16.60;49.40
29281;DHT22;25048;49.590;11.026;2023-04-06T12:42:14;16.70;51.00
29281;DHT22;25048;49.590;11.026;2023-04-06T12:44:42;17.10;48.10
29281;DHT22;25048;49.590;11.026;2023-04-06T12:47:10;17.60;48.80
29281;DHT22;25048;49.590;11.026;2023-04-06T12:49:37;18.10;46.50
29281;DHT22;25048;49.590;11.026;2023-04-06T12:52:04;18.60;45.60
29281;DHT22;25048;49.590;11.026;2023-04-06T12:54:32;18.80;47.10
29281;DHT22;25048;49.590;11.026;2023-04-06T12:56:59;19.10;46.30
29281;DHT22;25048;49.590;11.026;2023-04-06T12:59:27;19.50;42.80
29281;DHT22;25048;49.590;11.026;2023-04-06T13:01:56;19.80;43.10
29281;DHT22;25048;49.590;11.026;2023-04-06T13:04:24;20.20;43.00
29281;DHT22;25048;49.590;11.026;2023-04-06T13:06:52;20.10;39.30
29281;DHT22;25048;49.590;11.026;2023-04-06T13:09:20;20.50;41.80
29281;DHT22;25048;49.590;11.026;2023-04-06T13:11:47;21.20;40.90
29281;DHT22;25048;49.590;11.026;2023-04-06T13:14:15;21.60;38.50
29281;DHT22;25048;49.590;11.026;2023-04-06T13:16:42;21.50;39.20
29281;DHT22;25048;49.590;11.026;2023-04-06T13:19:10;22.00;38.00
29281;DHT22;25048;49.590;11.026;2023-04-06T13:21:38;22.40;36.50
29281;DHT22;25048;49.590;11.026;2023-04-06T13:24:06;22.80;36.80
29281;DHT22;25048;49.590;11.026;2023-04-06T13:26:33;23.10;36.00
29281;DHT22;25048;49.590;11.026;2023-04-06T13:29:02;23.00;34.50
29281;DHT22;25048;49.590;11.026;2023-04-06T13:31:29;23.40;36.00
29281;DHT22;25048;49.590;11.026;2023-04-06T13:33:57;23.60;35.70
29281;DHT22;25048;49.590;11.026;2023-04-06T13:36:25;23.50;33.70
29281;DHT22;25048;49.590;11.026;2023-04-06T13:38:53;23.80;35.00
29281;DHT22;25048;49.590;11.026;2023-04-06T13:41:23;24.30;33.70
29281;DHT22;25048;49.590;11.026;2023-04-06T13:43:51;24.70;33.80
29281;DHT22;25048;49.590;11.026;2023-04-06T13:46:19;25.50;34.30
29281;DHT22;25048;49.590;11.026;2023-04-06T13:48:46;26.60;33.20
29281;DHT22;25048;49.590;11.026;2023-04-06T13:51:14;27.30;30.10
29281;DHT22;25048;49.590;11.026;2023-04-06T13:53:42;27.20;29.60
29281;DHT22;25048;49.590;11.026;2023-04-06T13:56:10;26.30;32.60
29281;DHT22;25048;49.590;11.026;2023-04-06T13:58:37;26.40;29.80
29281;DHT22;25048;49.590;11.026;2023-04-06T14:01:08;26.30;29.80
29281;DHT22;25048;49.590;11.026;2023-04-06T14:03:36;26.40;30.00
29281;DHT22;25048;49.590;11.026;2023-04-06T14:06:12;26.90;29.40
29281;DHT22;25048;49.590;11.026;2023-04-06T14:08:40;27.20;28.70
29281;DHT22;25048;49.590;11.026;2023-04-06T14:11:12;26.70;30.40
29281;DHT22;25048;49.590;11.026;2023-04-06T14:13:40;27.00;30.20
29281;DHT22;25048;49.590;11.026;2023-04-06T14:16:08;27.90;29.30
29281;DHT22;25048;49.590;11.026;2023-04-06T14:18:37;28.00;27.20
29281;DHT22;25048;49.590;11.026;2023-04-06T14:21:05;28.90;28.50
29281;DHT22;25048;49.590;11.026;2023-04-06T14:23:33;29.20;29.20
29281;DHT22;25048;49.590;11.026;2023-04-06T14:26:06;29.50;26.00
29281;DHT22;25048;49.590;11.026;2023-04-06T14:28:35;28.90;26.30
29281;DHT22;25048;49.590;11.026;2023-04-06T14:31:14;28.70;26.50
29281;DHT22;25048;49.590;11.026;2023-04-06T14:33:33;28.60;27.30
29281;DHT22;25048;49.590;11.026;2023-04-06T14:36:05;27.90;26.40
29281;DHT22;25048;49.590;11.026;2023-04-06T14:38:32;28.30;27.00
29281;DHT22;25048;49.590;11.026;2023-04-06T14:41:00;28.80;26.20
29281;DHT22;25048;49.590;11.026;2023-04-06T14:43:27;29.20;25.00
29281;DHT22;25048;49.590;11.026;2023-04-06T14:45:59;29.40;24.70
29281;DHT22;25048;49.590;11.026;2023-04-06T14:48:24;29.60;25.20
29281;DHT22;25048;49.590;11.026;2023-04-06T14:50:56;29.90;25.70
29281;DHT22;25048;49.590;11.026;2023-04-06T14:53:24;30.50;25.50
29281;DHT22;25048;49.590;11.026;2023-04-06T14:55:53;31.10;25.90
29281;DHT22;25048;49.590;11.026;2023-04-06T14:58:21;31.40;26.10
29281;DHT22;25048;49.590;11.026;2023-04-06T15:00:49;31.50;23.90
29281;DHT22;25048;49.590;11.026;2023-04-06T15:03:18;30.50;24.00
29281;DHT22;25048;49.590;11.026;2023-04-06T15:05:46;30.10;25.30
29281;DHT22;25048;49.590;11.026;2023-04-06T15:08:13;30.20;26.20
29281;DHT22;25048;49.590;11.026;2023-04-06T15:10:41;30.20;25.50
29281;DHT22;25048;49.590;11.026;2023-04-06T15:13:09;30.40;25.00
29281;DHT22;25048;49.590;11.026;2023-04-06T15:15:36;30.50;25.40
29281;DHT22;25048;49.590;11.026;2023-04-06T15:18:04;30.40;25.00
29281;DHT22;25048;49.590;11.026;2023-04-06T15:20:32;30.10;25.00
29281;DHT22;25048;49.590;11.026;2023-04-06T15:23:01;29.60;24.80
29281;DHT22;25048;49.590;11.026;2023-04-06T15:25:30;29.60;24.80
29281;DHT22;25048;49.590;11.026;2023-04-06T15:27:57;29.50;26.60